メインページ
METAR-TAF:

METAR-TAF

空港 :

ワガドゥグー空港

ワガドゥグー, ブルキナファソ

緯度: 12-21N, 経度: 001-31W, 海抜: 316m

現時点の気象観測

当レポートは1時間28分前の18:00(UTC)に作成
の風 2kt
気温 32°C
湿度 59%
気圧 1010 hPa
視程10km以上
高度2000ftの雲はほとんどない

METAR: DFFD 181800Z 01002KT 9999 FEW020 32/23 Q1010 NOSIG

時間: 19:28 (19:28 UTC)

予報

当レポートは2時間28分前の17:00(UTC)に作成
予報は18日の 18時(UTC)から 19日の 24時(UTC)まで有効
南西の風 8kt
視程10km以上
高度2000ftの雲はほとんどない
確率 30% :
18日の 19時(UTC)から 18日の 24時(UTC)まで一時的に
高度2000ftの雲はほとんどない
高度3300ftの雲はほとんどない, 積乱雲.
激しい雷雨
確率 30% :
19日の 15時(UTC)から 19日の 24時(UTC)まで一時的に
視程: 4000m
高度2000ftの雲は散在している
高度3300ftの雲はほとんどない, 積乱雲.

TAF: DFFD 181700Z 1818/1924 22008KT 9999 FEW020 PROB30 TEMPO 1819/1824 TS FEW020 FEW033CB PROB30 TEMPO 1915/1924 4000 TSSHRA SCT020 FEW033CB

4,000以上の空港の気象観測と天気予報(METAR報とTAF報)

利用可能な観測所は地図上に黄色い丸と赤い丸で示す。

丸の上にカーソルを重ねると観測所名を参照できる。

次にクリックすると気象観測と天気予報を参照できる。

マップの切り替え:黒色「×」印の緑ボタンをクリックして拡大、「-」印の緑ボタンをクリックして縮小、緑色の三角印をクリックして隣りの地図に切り替え


METAR-TAF: